sensor_id;sensor_type;location;lat;lon;timestamp;P1;P2;P0
53698;PMS7003;68408;53.952;27.612;2023-07-30T00:00:36;20;17.9;14.3
53698;PMS7003;68408;53.952;27.612;2023-07-30T00:05:52;20.7;19;14.7
53698;PMS7003;68408;53.952;27.612;2023-07-30T00:10:52;20.1;18.3;14.6
53698;PMS7003;68408;53.952;27.612;2023-07-30T00:15:26;20.1;18.1;14.7
53698;PMS7003;68408;53.952;27.612;2023-07-30T00:20:22;18.8;16.7;13.4
53698;PMS7003;68408;53.952;27.612;2023-07-30T00:25:22;21.3;18.1;14.7
53698;PMS7003;68408;53.952;27.612;2023-07-30T00:30:36;23.8;21.5;16.9
53698;PMS7003;68408;53.952;27.612;2023-07-30T00:35:34;23.6;21.1;16.4
53698;PMS7003;68408;53.952;27.612;2023-07-30T00:40:40;24.5;22.1;16.8
53698;PMS7003;68408;53.952;27.612;2023-07-30T00:45:10;24.1;21.1;17
53698;PMS7003;68408;53.952;27.612;2023-07-30T00:50:10;22.9;21.1;16.5
53698;PMS7003;68408;53.952;27.612;2023-07-30T00:55:10;23.9;21.8;16.8
53698;PMS7003;68408;53.952;27.612;2023-07-30T01:00:10;23.6;21.4;16.5
53698;PMS7003;68408;53.952;27.612;2023-07-30T01:05:26;23.3;21.1;16
53698;PMS7003;68408;53.952;27.612;2023-07-30T01:10:34;22.3;20.3;16
53698;PMS7003;68408;53.952;27.612;2023-07-30T01:15:52;23;20.5;15.7
53698;PMS7003;68408;53.952;27.612;2023-07-30T01:20:24;24.2;21.4;16.5
53698;PMS7003;68408;53.952;27.612;2023-07-30T01:25:14;23.9;21.5;16.1
53698;PMS7003;68408;53.952;27.612;2023-07-30T01:30:37;24.5;21.7;16.5
53698;PMS7003;68408;53.952;27.612;2023-07-30T01:35:24;24.7;21.4;16.5
53698;PMS7003;68408;53.952;27.612;2023-07-30T01:40:42;24.2;21.1;16.4
53698;PMS7003;68408;53.952;27.612;2023-07-30T01:45:40;23;19.5;15.2
53698;PMS7003;68408;53.952;27.612;2023-07-30T01:50:52;24.6;21.4;16.3
53698;PMS7003;68408;53.952;27.612;2023-07-30T01:55:14;26.4;22.9;17.1
53698;PMS7003;68408;53.952;27.612;2023-07-30T02:00:14;24.3;21.8;17
53698;PMS7003;68408;53.952;27.612;2023-07-30T02:05:52;25.8;23.6;17.6
53698;PMS7003;68408;53.952;27.612;2023-07-30T02:10:42;26.7;24;18.3
53698;PMS7003;68408;53.952;27.612;2023-07-30T02:15:39;23.8;21.6;16.9
53698;PMS7003;68408;53.952;27.612;2023-07-30T02:20:48;21.8;20.2;15.9
53698;PMS7003;68408;53.952;27.612;2023-07-30T02:25:52;25.4;22.7;17.5
53698;PMS7003;68408;53.952;27.612;2023-07-30T02:30:34;24.3;22.4;17.3
53698;PMS7003;68408;53.952;27.612;2023-07-30T02:35:26;24.8;21.9;16.7
53698;PMS7003;68408;53.952;27.612;2023-07-30T02:40:38;26.2;23.3;17.5
53698;PMS7003;68408;53.952;27.612;2023-07-30T02:45:42;26.6;23.5;17.5
53698;PMS7003;68408;53.952;27.612;2023-07-30T02:50:52;24.7;22.7;17.4
53698;PMS7003;68408;53.952;27.612;2023-07-30T02:55:28;24.3;21.9;17.2
53698;PMS7003;68408;53.952;27.612;2023-07-30T03:00:14;24.6;21.6;16.5
53698;PMS7003;68408;53.952;27.612;2023-07-30T03:05:14;24.4;22;17
53698;PMS7003;68408;53.952;27.612;2023-07-30T03:10:52;25;22.5;17.5
53698;PMS7003;68408;53.952;27.612;2023-07-30T03:15:38;24;21.9;17.6
53698;PMS7003;68408;53.952;27.612;2023-07-30T03:20:28;25.5;21.7;17.1
53698;PMS7003;68408;53.952;27.612;2023-07-30T03:25:52;22.9;20.1;15
53698;PMS7003;68408;53.952;27.612;2023-07-30T03:30:38;23.8;20.8;16.8
53698;PMS7003;68408;53.952;27.612;2023-07-30T03:35:28;26.8;23.6;17.8
53698;PMS7003;68408;53.952;27.612;2023-07-30T03:40:14;26.2;23.4;17.7
53698;PMS7003;68408;53.952;27.612;2023-07-30T03:45:52;27.6;23.2;17.8
53698;PMS7003;68408;53.952;27.612;2023-07-30T03:50:36;26.4;23.9;18.3
53698;PMS7003;68408;53.952;27.612;2023-07-30T03:55:53;20.2;17.8;12.6
53698;PMS7003;68408;53.952;27.612;2023-07-30T04:00:52;22.8;20.8;16.2
53698;PMS7003;68408;53.952;27.612;2023-07-30T04:05:36;25.3;22;16.7
53698;PMS7003;68408;53.952;27.612;2023-07-30T04:10:34;21.2;18.7;14.2
53698;PMS7003;68408;53.952;27.612;2023-07-30T04:15:36;23.7;20.1;15.7
53698;PMS7003;68408;53.952;27.612;2023-07-30T04:20:50;24.2;21.9;16.8
53698;PMS7003;68408;53.952;27.612;2023-07-30T04:25:34;30.3;25.3;18.9
53698;PMS7003;68408;53.952;27.612;2023-07-30T04:30:24;25.8;23.2;17.3
53698;PMS7003;68408;53.952;27.612;2023-07-30T04:35:50;29;25.2;18
53698;PMS7003;68408;53.952;27.612;2023-07-30T04:40:12;23.7;21.2;16
53698;PMS7003;68408;53.952;27.612;2023-07-30T04:45:20;19.7;17.6;14.1
53698;PMS7003;68408;53.952;27.612;2023-07-30T04:50:11;17.5;15.9;13
53698;PMS7003;68408;53.952;27.612;2023-07-30T04:55:32;17.8;15.8;12.3
53698;PMS7003;68408;53.952;27.612;2023-07-30T05:00:34;16.5;14.7;11.5
53698;PMS7003;68408;53.952;27.612;2023-07-30T05:05:36;13.7;12.6;10.3
53698;PMS7003;68408;53.952;27.612;2023-07-30T05:10:24;13.7;12.6;10.2
53698;PMS7003;68408;53.952;27.612;2023-07-30T05:15:25;15.1;13.2;10.7
53698;PMS7003;68408;53.952;27.612;2023-07-30T05:20:12;14.2;12.6;10.7
53698;PMS7003;68408;53.952;27.612;2023-07-30T05:25:28;18.8;17.2;13.2
53698;PMS7003;68408;53.952;27.612;2023-07-30T05:30:24;13.8;12.3;9.8
53698;PMS7003;68408;53.952;27.612;2023-07-30T05:35:26;12.7;11.1;9
53698;PMS7003;68408;53.952;27.612;2023-07-30T05:40:50;13.9;12.9;10.3
53698;PMS7003;68408;53.952;27.612;2023-07-30T05:45:20;12.6;10.8;8.6
53698;PMS7003;68408;53.952;27.612;2023-07-30T05:50:10;10.5;9.3;7.9
53698;PMS7003;68408;53.952;27.612;2023-07-30T05:55:50;8.9;8.2;7
53698;PMS7003;68408;53.952;27.612;2023-07-30T06:00:20;9.3;8.4;7.1
53698;PMS7003;68408;53.952;27.612;2023-07-30T06:05:30;10.2;9;7.8
53698;PMS7003;68408;53.952;27.612;2023-07-30T06:10:12;9.9;8.5;7.1
53698;PMS7003;68408;53.952;27.612;2023-07-30T06:15:36;9.6;8.8;7.5
53698;PMS7003;68408;53.952;27.612;2023-07-30T06:20:12;9.8;9;7.7
53698;PMS7003;68408;53.952;27.612;2023-07-30T06:25:26;12.1;11.2;9.1
53698;PMS7003;68408;53.952;27.612;2023-07-30T06:30:48;11.3;9.6;7.6
53698;PMS7003;68408;53.952;27.612;2023-07-30T06:35:36;9.7;9;7.5
53698;PMS7003;68408;53.952;27.612;2023-07-30T06:40:10;8.2;7.5;6.3
53698;PMS7003;68408;53.952;27.612;2023-07-30T06:45:24;6.4;5.9;4.8
53698;PMS7003;68408;53.952;27.612;2023-07-30T06:50:52;7.5;7.2;6.2
53698;PMS7003;68408;53.952;27.612;2023-07-30T06:55:10;7.6;6.8;5.8
53698;PMS7003;68408;53.952;27.612;2023-07-30T07:00:11;8.6;7.6;6.5
53698;PMS7003;68408;53.952;27.612;2023-07-30T07:05:38;12;10.5;8.5
53698;PMS7003;68408;53.952;27.612;2023-07-30T07:10:43;7.4;6.6;5.9
53698;PMS7003;68408;53.952;27.612;2023-07-30T07:15:52;6.8;6.1;5.1
53698;PMS7003;68408;53.952;27.612;2023-07-30T07:20:28;11.9;10.1;7.9
53698;PMS7003;68408;53.952;27.612;2023-07-30T07:25:10;6.9;6.4;5.5
53698;PMS7003;68408;53.952;27.612;2023-07-30T07:30:11;7;6.4;5.2
53698;PMS7003;68408;53.952;27.612;2023-07-30T07:36:01;6.7;6.1;5.3
53698;PMS7003;68408;53.952;27.612;2023-07-30T07:40:38;6.2;5.5;4.8
53698;PMS7003;68408;53.952;27.612;2023-07-30T07:45:30;6.5;5.8;5
53698;PMS7003;68408;53.952;27.612;2023-07-30T07:50:52;6.4;5.7;5.1
53698;PMS7003;68408;53.952;27.612;2023-07-30T07:55:38;5.7;5.3;4.6
53698;PMS7003;68408;53.952;27.612;2023-07-30T08:00:11;5.5;5.2;4.5
53698;PMS7003;68408;53.952;27.612;2023-07-30T08:05:14;5.5;5;4.3
53698;PMS7003;68408;53.952;27.612;2023-07-30T08:10:50;6;5.3;4.6
53698;PMS7003;68408;53.952;27.612;2023-07-30T08:15:50;8.9;6.7;5.4
53698;PMS7003;68408;53.952;27.612;2023-07-30T08:20:52;11.8;10.1;8
53698;PMS7003;68408;53.952;27.612;2023-07-30T08:25:50;9.9;8.2;6.9
53698;PMS7003;68408;53.952;27.612;2023-07-30T08:30:40;7;6.3;5.5
53698;PMS7003;68408;53.952;27.612;2023-07-30T08:35:10;7;6.6;5.5
53698;PMS7003;68408;53.952;27.612;2023-07-30T08:40:40;7.4;6.7;5.9
53698;PMS7003;68408;53.952;27.612;2023-07-30T08:45:50;7.4;6.7;5.6
53698;PMS7003;68408;53.952;27.612;2023-07-30T08:50:38;7.6;6.8;5.7
53698;PMS7003;68408;53.952;27.612;2023-07-30T08:55:26;7.9;6.8;5.8
53698;PMS7003;68408;53.952;27.612;2023-07-30T09:00:53;8.5;7.2;6.1
53698;PMS7003;68408;53.952;27.612;2023-07-30T09:05:14;6.5;5.4;4.6
53698;PMS7003;68408;53.952;27.612;2023-07-30T09:10:16;6.3;5.6;4.8
53698;PMS7003;68408;53.952;27.612;2023-07-30T09:15:10;5.9;5.4;4.7
53698;PMS7003;68408;53.952;27.612;2023-07-30T09:20:39;5.7;5;4.3
53698;PMS7003;68408;53.952;27.612;2023-07-30T09:25:38;6.8;5.7;5
53698;PMS7003;68408;53.952;27.612;2023-07-30T09:30:54;7;5.5;4.6
53698;PMS7003;68408;53.952;27.612;2023-07-30T09:35:32;9.1;8.1;6.2
53698;PMS7003;68408;53.952;27.612;2023-07-30T09:40:38;9.5;8.5;7.1
53698;PMS7003;68408;53.952;27.612;2023-07-30T09:45:37;10.2;9;7.4
53698;PMS7003;68408;53.952;27.612;2023-07-30T09:50:18;10.9;9.5;7.9
53698;PMS7003;68408;53.952;27.612;2023-07-30T09:55:26;10.7;9.5;8.1
53698;PMS7003;68408;53.952;27.612;2023-07-30T10:00:32;9;8.3;7.1
53698;PMS7003;68408;53.952;27.612;2023-07-30T10:05:55;9.7;8.2;6.8
53698;PMS7003;68408;53.952;27.612;2023-07-30T10:10:18;9.9;8.7;7.4
53698;PMS7003;68408;53.952;27.612;2023-07-30T10:15:24;9.1;7.9;6.7
53698;PMS7003;68408;53.952;27.612;2023-07-30T10:20:54;8.4;7.6;6.3
53698;PMS7003;68408;53.952;27.612;2023-07-30T10:25:12;8.3;7.4;6.1
53698;PMS7003;68408;53.952;27.612;2023-07-30T10:30:11;8.1;7.2;6
53698;PMS7003;68408;53.952;27.612;2023-07-30T10:35:38;6.9;6.6;5.4
53698;PMS7003;68408;53.952;27.612;2023-07-30T10:40:18;7.8;6.6;5.5
53698;PMS7003;68408;53.952;27.612;2023-07-30T10:45:10;7.4;6.3;5.1
53698;PMS7003;68408;53.952;27.612;2023-07-30T10:50:16;7.6;6.7;5.9
53698;PMS7003;68408;53.952;27.612;2023-07-30T10:55:53;6.8;6.5;5.7
53698;PMS7003;68408;53.952;27.612;2023-07-30T11:00:42;7;6.2;4.9
53698;PMS7003;68408;53.952;27.612;2023-07-30T11:05:11;7.7;6.8;5.7
53698;PMS7003;68408;53.952;27.612;2023-07-30T11:10:10;7.9;6.6;5.6
53698;PMS7003;68408;53.952;27.612;2023-07-30T11:15:54;6.4;6;5.3
53698;PMS7003;68408;53.952;27.612;2023-07-30T11:20:21;5.5;5;4.4
53698;PMS7003;68408;53.952;27.612;2023-07-30T11:25:16;5.4;5;4.4
53698;PMS7003;68408;53.952;27.612;2023-07-30T11:30:51;5.5;4.9;4.2
53698;PMS7003;68408;53.952;27.612;2023-07-30T11:35:42;5.7;4.8;4.4
53698;PMS7003;68408;53.952;27.612;2023-07-30T11:40:53;7.2;6.6;5.6
53698;PMS7003;68408;53.952;27.612;2023-07-30T11:45:18;6.5;6.1;5.3
53698;PMS7003;68408;53.952;27.612;2023-07-30T11:50:44;6.8;5.9;5.2
53698;PMS7003;68408;53.952;27.612;2023-07-30T11:55:16;7.1;6.1;4.9
53698;PMS7003;68408;53.952;27.612;2023-07-30T12:00:54;7.3;6.4;5.6
53698;PMS7003;68408;53.952;27.612;2023-07-30T12:05:40;7.3;6.3;5.3
53698;PMS7003;68408;53.952;27.612;2023-07-30T12:10:43;10.2;8.9;7.5
53698;PMS7003;68408;53.952;27.612;2023-07-30T12:15:55;12.8;11.7;9.5
53698;PMS7003;68408;53.952;27.612;2023-07-30T12:20:40;7.2;6.4;5.3
53698;PMS7003;68408;53.952;27.612;2023-07-30T12:25:54;6.2;5.8;5.1
53698;PMS7003;68408;53.952;27.612;2023-07-30T12:30:11;5.6;5.2;4.4
53698;PMS7003;68408;53.952;27.612;2023-07-30T12:35:53;6.7;5.6;4.9
53698;PMS7003;68408;53.952;27.612;2023-07-30T12:40:52;5.6;5;4.4
53698;PMS7003;68408;53.952;27.612;2023-07-30T12:45:52;9.3;8;6.7
53698;PMS7003;68408;53.952;27.612;2023-07-30T12:50:52;13;11.7;9.1
53698;PMS7003;68408;53.952;27.612;2023-07-30T12:55:41;7.4;6.3;5.4
53698;PMS7003;68408;53.952;27.612;2023-07-30T13:00:11;6.4;5.2;4.6
53698;PMS7003;68408;53.952;27.612;2023-07-30T13:05:40;6.7;5.9;5
53698;PMS7003;68408;53.952;27.612;2023-07-30T13:10:36;6;5.3;4.9
53698;PMS7003;68408;53.952;27.612;2023-07-30T13:15:38;7.3;6.1;5.2
53698;PMS7003;68408;53.952;27.612;2023-07-30T13:20:55;6.8;5.8;5.1
53698;PMS7003;68408;53.952;27.612;2023-07-30T13:25:54;7.1;6.5;5.3
53698;PMS7003;68408;53.952;27.612;2023-07-30T13:30:10;6.8;5.5;4.4
53698;PMS7003;68408;53.952;27.612;2023-07-30T13:35:10;8.1;6.2;5.3
53698;PMS7003;68408;53.952;27.612;2023-07-30T13:40:24;7.3;7;5.6
53698;PMS7003;68408;53.952;27.612;2023-07-30T13:45:28;7.4;6.2;5.2
53698;PMS7003;68408;53.952;27.612;2023-07-30T13:50:38;6;5.2;4.3
53698;PMS7003;68408;53.952;27.612;2023-07-30T13:55:54;7;6;5.1
53698;PMS7003;68408;53.952;27.612;2023-07-30T14:00:28;5.9;5.2;4.3
53698;PMS7003;68408;53.952;27.612;2023-07-30T14:05:30;5.9;5.6;5
53698;PMS7003;68408;53.952;27.612;2023-07-30T14:10:54;6.4;5.5;4.8
53698;PMS7003;68408;53.952;27.612;2023-07-30T14:15:24;6.9;5.9;5.1
53698;PMS7003;68408;53.952;27.612;2023-07-30T14:25:44;6.4;5.5;4.8
53698;PMS7003;68408;53.952;27.612;2023-07-30T14:30:55;8.9;8.3;7.1
53698;PMS7003;68408;53.952;27.612;2023-07-30T14:35:11;11.6;10;8.2
53698;PMS7003;68408;53.952;27.612;2023-07-30T14:45:53;6.7;6.3;5.6
53698;PMS7003;68408;53.952;27.612;2023-07-30T14:50:19;7.1;6.1;5.1
53698;PMS7003;68408;53.952;27.612;2023-07-30T14:55:37;7.3;6.5;5.6
53698;PMS7003;68408;53.952;27.612;2023-07-30T15:00:17;6.7;6;5.2
53698;PMS7003;68408;53.952;27.612;2023-07-30T15:05:33;8;7;5.8
53698;PMS7003;68408;53.952;27.612;2023-07-30T15:10:11;7.2;6.9;5.8
53698;PMS7003;68408;53.952;27.612;2023-07-30T15:15:31;7.2;6.5;5.5
53698;PMS7003;68408;53.952;27.612;2023-07-30T15:20:53;6.9;6.3;5.3
53698;PMS7003;68408;53.952;27.612;2023-07-30T15:25:43;6.8;5.9;5
53698;PMS7003;68408;53.952;27.612;2023-07-30T15:30:39;9.8;8.9;7
53698;PMS7003;68408;53.952;27.612;2023-07-30T15:35:31;12.7;10.9;8.4
53698;PMS7003;68408;53.952;27.612;2023-07-30T15:40:51;7.5;6.9;5.8
53698;PMS7003;68408;53.952;27.612;2023-07-30T15:45:23;7.9;6.4;5.4
53698;PMS7003;68408;53.952;27.612;2023-07-30T15:50:19;7.4;6.9;5.8
53698;PMS7003;68408;53.952;27.612;2023-07-30T15:55:41;8.1;7.2;6.2
53698;PMS7003;68408;53.952;27.612;2023-07-30T16:00:45;7;6.6;5.4
53698;PMS7003;68408;53.952;27.612;2023-07-30T16:05:53;7.7;6.7;5.6
53698;PMS7003;68408;53.952;27.612;2023-07-30T16:15:11;8.6;7.6;6.4
53698;PMS7003;68408;53.952;27.612;2023-07-30T16:20:17;11.8;10.3;8.5
53698;PMS7003;68408;53.952;27.612;2023-07-30T16:25:51;10.8;9.5;7.9
53698;PMS7003;68408;53.952;27.612;2023-07-30T16:35:43;9;8.3;7
53698;PMS7003;68408;53.952;27.612;2023-07-30T16:40:39;7;6.5;5.7
53698;PMS7003;68408;53.952;27.612;2023-07-30T16:50:25;8.4;7;6.3
53698;PMS7003;68408;53.952;27.612;2023-07-30T16:55:11;8.3;7.4;6.3
53698;PMS7003;68408;53.952;27.612;2023-07-30T17:00:58;7.2;6.5;5.5
53698;PMS7003;68408;53.952;27.612;2023-07-30T17:05:56;11.1;9.6;7.7
53698;PMS7003;68408;53.952;27.612;2023-07-30T17:10:53;12.8;11.7;9.4
53698;PMS7003;68408;53.952;27.612;2023-07-30T17:15:53;8.2;7.5;6.4
53698;PMS7003;68408;53.952;27.612;2023-07-30T17:20:33;7.9;7;5.9
53698;PMS7003;68408;53.952;27.612;2023-07-30T17:25:19;8.6;7.7;6.6
53698;PMS7003;68408;53.952;27.612;2023-07-30T17:30:41;8.8;7.9;6.6
53698;PMS7003;68408;53.952;27.612;2023-07-30T17:35:51;8.9;8;6.5
53698;PMS7003;68408;53.952;27.612;2023-07-30T17:40:39;10.4;9.4;7.3
53698;PMS7003;68408;53.952;27.612;2023-07-30T17:45:27;9.9;8.7;7.4
53698;PMS7003;68408;53.952;27.612;2023-07-30T17:50:53;9.9;8.8;7.4
53698;PMS7003;68408;53.952;27.612;2023-07-30T17:55:29;22.3;20;15
53698;PMS7003;68408;53.952;27.612;2023-07-30T18:00:19;18.6;16.7;12.6
53698;PMS7003;68408;53.952;27.612;2023-07-30T18:05:17;10.9;10.1;8
53698;PMS7003;68408;53.952;27.612;2023-07-30T18:10:39;10;8.9;7.3
53698;PMS7003;68408;53.952;27.612;2023-07-30T18:15:33;10.9;9.6;8.2
53698;PMS7003;68408;53.952;27.612;2023-07-30T18:20:41;11.5;10.5;8.4
53698;PMS7003;68408;53.952;27.612;2023-07-30T18:25:11;10.3;9.7;7.9
53698;PMS7003;68408;53.952;27.612;2023-07-30T18:30:11;11.2;10;8.3
53698;PMS7003;68408;53.952;27.612;2023-07-30T18:35:11;13;11.4;9
53698;PMS7003;68408;53.952;27.612;2023-07-30T18:40:25;13.9;11.9;9.8
53698;PMS7003;68408;53.952;27.612;2023-07-30T18:45:30;13.6;11.9;9.9
53698;PMS7003;68408;53.952;27.612;2023-07-30T18:50:55;16.9;15.1;12
53698;PMS7003;68408;53.952;27.612;2023-07-30T18:55:53;16.2;14.5;11.4
53698;PMS7003;68408;53.952;27.612;2023-07-30T19:00:25;16.2;14.8;12.2
53698;PMS7003;68408;53.952;27.612;2023-07-30T19:05:31;17.3;15.3;12.3
53698;PMS7003;68408;53.952;27.612;2023-07-30T19:10:39;18.5;15.9;12.6
53698;PMS7003;68408;53.952;27.612;2023-07-30T19:15:17;21.6;18.5;13.8
53698;PMS7003;68408;53.952;27.612;2023-07-30T19:20:29;35.5;29.2;21.3
53698;PMS7003;68408;53.952;27.612;2023-07-30T19:25:35;21;18.5;14.7
53698;PMS7003;68408;53.952;27.612;2023-07-30T19:30:55;19.5;17.7;13.5
53698;PMS7003;68408;53.952;27.612;2023-07-30T19:35:17;29.4;25.6;18.4
53698;PMS7003;68408;53.952;27.612;2023-07-30T19:40:31;40.4;33.3;23.2
53698;PMS7003;68408;53.952;27.612;2023-07-30T19:45:49;24.2;20.9;15.6
53698;PMS7003;68408;53.952;27.612;2023-07-30T19:50:25;20.9;18.6;14.9
53698;PMS7003;68408;53.952;27.612;2023-07-30T19:55:29;21.6;18.7;14.2
53698;PMS7003;68408;53.952;27.612;2023-07-30T20:00:41;21.9;19.6;15.3
53698;PMS7003;68408;53.952;27.612;2023-07-30T20:05:45;22.5;19.2;15
53698;PMS7003;68408;53.952;27.612;2023-07-30T20:10:11;21;19.3;14.5
53698;PMS7003;68408;53.952;27.612;2023-07-30T20:15:45;21.1;19;14.7
53698;PMS7003;68408;53.952;27.612;2023-07-30T20:20:55;22.6;19.7;15.1
53698;PMS7003;68408;53.952;27.612;2023-07-30T20:25:45;23.5;21.5;16.3
53698;PMS7003;68408;53.952;27.612;2023-07-30T20:30:11;25.4;21.9;16.6
53698;PMS7003;68408;53.952;27.612;2023-07-30T20:35:25;23.5;21;16.3
53698;PMS7003;68408;53.952;27.612;2023-07-30T20:40:56;24.7;21.7;16.6
53698;PMS7003;68408;53.952;27.612;2023-07-30T20:45:17;21.9;19.7;15.5
53698;PMS7003;68408;53.952;27.612;2023-07-30T20:50:41;23.8;21.8;16.7
53698;PMS7003;68408;53.952;27.612;2023-07-30T20:55:41;26.9;23.5;17.7
53698;PMS7003;68408;53.952;27.612;2023-07-30T21:00:14;26;23.1;17.2
53698;PMS7003;68408;53.952;27.612;2023-07-30T21:05:55;34.4;30;21.1
53698;PMS7003;68408;53.952;27.612;2023-07-30T21:10:31;25.9;23.6;17.7
53698;PMS7003;68408;53.952;27.612;2023-07-30T21:15:11;25.4;22.1;17
53698;PMS7003;68408;53.952;27.612;2023-07-30T21:20:17;25.2;22.2;16.6
53698;PMS7003;68408;53.952;27.612;2023-07-30T21:25:55;23.2;20.8;16.1
53698;PMS7003;68408;53.952;27.612;2023-07-30T21:30:41;22.8;20.3;16
53698;PMS7003;68408;53.952;27.612;2023-07-30T21:35:45;23.5;21.1;16.1
53698;PMS7003;68408;53.952;27.612;2023-07-30T21:40:55;24.6;21.5;16.2
53698;PMS7003;68408;53.952;27.612;2023-07-30T21:45:41;24.1;20.6;16.2
53698;PMS7003;68408;53.952;27.612;2023-07-30T21:50:11;22.5;20;15.3
53698;PMS7003;68408;53.952;27.612;2023-07-30T21:55:17;25.4;22.3;17
53698;PMS7003;68408;53.952;27.612;2023-07-30T22:00:55;23;20.5;15.7
53698;PMS7003;68408;53.952;27.612;2023-07-30T22:05:55;24.1;21.1;16.2
53698;PMS7003;68408;53.952;27.612;2023-07-30T22:10:29;22.7;20.6;16.2
53698;PMS7003;68408;53.952;27.612;2023-07-30T22:15:55;23.9;21.5;16.2
53698;PMS7003;68408;53.952;27.612;2023-07-30T22:20:41;22.2;20.1;15.4
53698;PMS7003;68408;53.952;27.612;2023-07-30T22:25:55;23.1;20.1;15.5
53698;PMS7003;68408;53.952;27.612;2023-07-30T22:30:55;21.6;19.2;15.1
53698;PMS7003;68408;53.952;27.612;2023-07-30T22:35:39;21.8;19;14.9
53698;PMS7003;68408;53.952;27.612;2023-07-30T22:40:39;22.2;18.5;13.6
53698;PMS7003;68408;53.952;27.612;2023-07-30T22:45:39;22.3;19.4;15.3
53698;PMS7003;68408;53.952;27.612;2023-07-30T22:50:11;20;18.1;13.7
53698;PMS7003;68408;53.952;27.612;2023-07-30T22:55:45;22.1;18.5;14.5
53698;PMS7003;68408;53.952;27.612;2023-07-30T23:00:19;20.3;18.1;14.3
53698;PMS7003;68408;53.952;27.612;2023-07-30T23:05:55;23.1;20.3;15
53698;PMS7003;68408;53.952;27.612;2023-07-30T23:10:29;20.2;17.9;14.1
53698;PMS7003;68408;53.952;27.612;2023-07-30T23:15:31;19.1;17;13.5
53698;PMS7003;68408;53.952;27.612;2023-07-30T23:20:55;21.4;18.1;14.5
53698;PMS7003;68408;53.952;27.612;2023-07-30T23:25:31;21.5;18.7;14.8
53698;PMS7003;68408;53.952;27.612;2023-07-30T23:30:11;20;17.9;14.1
53698;PMS7003;68408;53.952;27.612;2023-07-30T23:35:31;21.2;18.2;13.7
53698;PMS7003;68408;53.952;27.612;2023-07-30T23:40:11;22;19.3;15.2
53698;PMS7003;68408;53.952;27.612;2023-07-30T23:45:29;21.8;19.5;15
53698;PMS7003;68408;53.952;27.612;2023-07-30T23:50:45;22;19;14.7
53698;PMS7003;68408;53.952;27.612;2023-07-30T23:55:55;18.6;16.4;12.7
